createdAt,value
2022-08-20T00:02:09.853Z,81.30
2022-08-20T00:04:37.118Z,81.40
2022-08-20T00:07:06.537Z,81.70
2022-08-20T00:09:36.587Z,81.80
2022-08-20T00:12:04.675Z,81.80
2022-08-20T00:14:34.238Z,81.70
2022-08-20T00:17:01.904Z,81.80
2022-08-20T00:19:29.482Z,81.80
2022-08-20T00:21:58.377Z,81.80
2022-08-20T00:24:25.648Z,81.90
2022-08-20T00:26:52.978Z,81.80
2022-08-20T00:29:20.302Z,81.80
2022-08-20T00:31:48.743Z,81.80
2022-08-20T00:34:15.720Z,81.90
2022-08-20T00:36:42.702Z,81.90
2022-08-20T00:39:09.650Z,81.80
2022-08-20T00:41:36.660Z,81.30
2022-08-20T00:44:10.769Z,82.00
2022-08-20T00:46:38.065Z,82.10
2022-08-20T00:49:08.527Z,82.10
2022-08-20T00:51:42.926Z,82.10
2022-08-20T00:54:15.004Z,82.10
2022-08-20T00:56:44.056Z,82.00
2022-08-20T00:59:16.074Z,82.20
2022-08-20T01:01:55.697Z,82.20
2022-08-20T01:04:26.159Z,82.20
2022-08-20T01:06:53.172Z,82.20
2022-08-20T01:09:49.767Z,82.20
2022-08-20T01:12:09.890Z,82.20
2022-08-20T01:14:45.798Z,82.30
2022-08-20T01:17:17.689Z,82.30
2022-08-20T01:19:51.212Z,82.40
2022-08-20T01:22:56.977Z,82.40
2022-08-20T01:25:30.666Z,82.50
2022-08-20T01:28:00.126Z,82.70
2022-08-20T01:30:29.451Z,82.70
2022-08-20T01:32:56.664Z,82.60
2022-08-20T01:35:25.850Z,82.90
2022-08-20T01:37:55.736Z,82.90
2022-08-20T01:40:35.802Z,82.60
2022-08-20T01:43:08.617Z,82.50
2022-08-20T01:45:36.975Z,82.60
2022-08-20T01:48:08.091Z,82.40
2022-08-20T01:50:39.975Z,82.50
2022-08-20T01:53:14.862Z,82.50
2022-08-20T01:55:41.875Z,82.60
2022-08-20T01:58:10.552Z,82.60
2022-08-20T02:00:37.786Z,82.60
2022-08-20T02:03:05.005Z,82.60
2022-08-20T02:05:33.912Z,82.60
2022-08-20T02:08:02.010Z,82.60
2022-08-20T02:10:31.656Z,82.60
2022-08-20T02:12:59.363Z,82.70
2022-08-20T02:15:34.782Z,82.50
2022-08-20T02:18:04.978Z,82.50
2022-08-20T02:20:35.971Z,82.50
2022-08-20T02:23:05.322Z,82.50
2022-08-20T02:25:34.821Z,82.50
2022-08-20T02:28:05.616Z,82.50
2022-08-20T02:30:38.098Z,82.50
2022-08-20T02:33:08.039Z,82.40
2022-08-20T02:35:40.652Z,82.40
2022-08-20T02:38:07.956Z,82.50
2022-08-20T02:40:36.147Z,82.40
2022-08-20T02:43:04.413Z,82.50
2022-08-20T02:45:43.456Z,82.50
2022-08-20T02:48:12.332Z,82.40
2022-08-20T02:50:43.967Z,82.40
2022-08-20T02:53:12.052Z,82.40
2022-08-20T02:55:39.000Z,82.40
2022-08-20T02:58:05.924Z,82.30
2022-08-20T03:00:38.590Z,82.20
2022-08-20T03:03:06.763Z,82.30
2022-08-20T03:05:33.968Z,82.30
2022-08-20T03:08:01.007Z,82.20
2022-08-20T03:10:31.016Z,82.20
2022-08-20T03:12:59.716Z,82.20
2022-08-20T03:15:27.121Z,82.30
2022-08-20T03:17:55.832Z,82.30
2022-08-20T03:20:24.430Z,82.40
2022-08-20T03:22:56.574Z,82.40
2022-08-20T03:25:23.941Z,82.40
2022-08-20T03:27:54.833Z,82.50
2022-08-20T03:30:23.717Z,82.50
2022-08-20T03:32:51.241Z,82.50
2022-08-20T03:35:21.478Z,82.50
2022-08-20T03:37:49.364Z,82.50
2022-08-20T03:40:20.979Z,82.60
2022-08-20T03:42:47.959Z,82.60
2022-08-20T03:45:19.788Z,82.60
2022-08-20T03:47:48.600Z,82.60
2022-08-20T03:50:22.963Z,82.60
2022-08-20T03:52:52.050Z,82.60
2022-08-20T03:55:20.092Z,82.50
2022-08-20T03:57:49.405Z,82.50
2022-08-20T04:00:20.580Z,82.50
2022-08-20T04:02:47.631Z,82.50
2022-08-20T04:05:14.672Z,82.50
2022-08-20T04:07:41.872Z,82.60
2022-08-20T04:10:19.852Z,82.70
2022-08-20T04:12:53.037Z,82.70
2022-08-20T04:15:21.211Z,82.70
2022-08-20T04:17:53.506Z,82.70
2022-08-20T04:20:23.882Z,82.60
2022-08-20T04:22:58.996Z,82.50
2022-08-20T04:25:35.928Z,82.50
2022-08-20T04:28:06.737Z,82.40
2022-08-20T04:30:34.436Z,82.40
2022-08-20T04:33:01.846Z,82.40
2022-08-20T04:35:30.006Z,82.40
2022-08-20T04:38:01.644Z,82.40
2022-08-20T04:40:48.283Z,82.50
2022-08-20T04:43:15.692Z,82.50
2022-08-20T04:45:43.084Z,82.40
2022-08-20T04:48:14.768Z,82.50
2022-08-20T04:50:44.702Z,82.50
2022-08-20T04:53:14.070Z,82.50
2022-08-20T04:55:43.213Z,82.50
2022-08-20T04:58:12.658Z,82.60
2022-08-20T05:00:41.636Z,82.60
2022-08-20T05:03:09.012Z,82.60
2022-08-20T05:05:39.453Z,82.60
2022-08-20T05:08:06.384Z,82.60
2022-08-20T05:10:48.352Z,82.60
2022-08-20T05:13:19.106Z,82.60
2022-08-20T05:15:46.320Z,82.60
2022-08-20T05:18:13.424Z,82.60
2022-08-20T05:20:42.144Z,82.60
2022-08-20T05:23:11.015Z,82.70
2022-08-20T05:25:42.650Z,82.70
2022-08-20T05:28:12.842Z,82.70
2022-08-20T05:30:41.304Z,82.80
2022-08-20T05:33:10.436Z,82.80
2022-08-20T05:35:38.732Z,82.90
2022-08-20T05:38:06.484Z,82.90
2022-08-20T05:40:36.101Z,82.90
2022-08-20T05:43:04.721Z,82.90
2022-08-20T05:45:33.855Z,82.90
2022-08-20T05:48:04.558Z,82.90
2022-08-20T05:50:34.351Z,82.90
2022-08-20T05:53:01.874Z,82.90
2022-08-20T05:55:29.291Z,82.90
2022-08-20T05:57:57.882Z,82.90
2022-08-20T06:00:24.932Z,82.70
2022-08-20T06:03:11.783Z,82.70
2022-08-20T06:05:38.813Z,82.70
2022-08-20T06:08:07.756Z,82.70
2022-08-20T06:10:36.189Z,82.50
2022-08-20T06:13:03.619Z,82.50
2022-08-20T06:15:31.292Z,82.50
2022-08-20T06:17:59.726Z,82.40
2022-08-20T06:20:28.908Z,82.30
2022-08-20T06:22:55.913Z,82.30
2022-08-20T06:25:22.824Z,82.10
2022-08-20T06:27:49.666Z,82.10
2022-08-20T06:30:17.507Z,82.10
2022-08-20T06:32:44.558Z,81.80
2022-08-20T06:35:18.044Z,81.80
2022-08-20T06:37:46.753Z,81.70
2022-08-20T06:40:16.260Z,81.70
2022-08-20T06:42:48.244Z,81.30
2022-08-20T06:45:20.211Z,81.20
2022-08-20T06:47:59.278Z,80.90
2022-08-20T06:50:30.297Z,80.80
2022-08-20T06:52:57.727Z,80.70
2022-08-20T06:55:25.388Z,80.50
2022-08-20T06:57:59.848Z,80.20
2022-08-20T07:00:28.012Z,79.90
2022-08-20T07:02:55.228Z,79.40
2022-08-20T07:05:22.432Z,79.20
2022-08-20T07:07:50.998Z,78.80
2022-08-20T07:10:20.317Z,78.70
2022-08-20T07:12:47.553Z,78.20
2022-08-20T07:15:15.308Z,78.20
2022-08-20T07:17:42.659Z,77.40
2022-08-20T07:20:12.701Z,77.20
2022-08-20T07:22:39.661Z,77.10
2022-08-20T07:25:12.681Z,76.60
2022-08-20T07:27:40.566Z,75.80
2022-08-20T07:30:29.473Z,75.40
2022-08-20T07:32:57.732Z,74.80
2022-08-20T07:35:25.398Z,75.20
2022-08-20T07:37:54.491Z,73.90
2022-08-20T07:40:29.638Z,73.40
2022-08-20T07:42:58.676Z,73.20
2022-08-20T07:45:26.509Z,72.50
2022-08-20T07:47:54.121Z,71.20
2022-08-20T07:50:23.651Z,71.40
2022-08-20T07:52:53.680Z,71.20
2022-08-20T07:55:21.886Z,69.90
2022-08-20T07:57:50.984Z,70.50
2022-08-20T08:00:20.312Z,71.30
2022-08-20T08:02:47.161Z,70.30
2022-08-20T08:05:14.348Z,69.70
2022-08-20T08:07:43.183Z,69.20
2022-08-20T08:10:12.707Z,69.00
2022-08-20T08:12:43.331Z,69.10
2022-08-20T08:15:16.932Z,68.50
2022-08-20T08:17:44.384Z,67.50
2022-08-20T08:20:12.387Z,67.20
2022-08-20T08:22:42.334Z,67.60
2022-08-20T08:25:10.627Z,67.10
2022-08-20T08:27:47.610Z,68.20
2022-08-20T08:30:16.965Z,67.60
2022-08-20T08:33:02.895Z,65.00
2022-08-20T08:35:32.543Z,64.90
2022-08-20T08:38:02.469Z,64.80
2022-08-20T08:40:30.360Z,65.00
2022-08-20T08:42:59.299Z,64.40
2022-08-20T08:45:34.155Z,64.80
2022-08-20T08:48:01.694Z,63.90
2022-08-20T08:50:52.962Z,63.60
2022-08-20T08:53:24.787Z,63.70
2022-08-20T08:55:51.671Z,64.70
2022-08-20T08:58:18.625Z,63.10
2022-08-20T09:00:55.862Z,62.30
2022-08-20T09:03:27.975Z,62.70
2022-08-20T09:06:00.622Z,62.60
2022-08-20T09:08:31.615Z,62.00
2022-08-20T09:11:02.185Z,61.90
2022-08-20T09:13:33.431Z,63.90
2022-08-20T09:16:02.019Z,61.40
2022-08-20T09:18:28.987Z,62.30
2022-08-20T09:20:56.425Z,61.40
2022-08-20T09:23:26.111Z,61.60
2022-08-20T09:25:52.997Z,63.70
2022-08-20T09:28:19.995Z,61.10
2022-08-20T09:30:48.454Z,62.60
2022-08-20T09:33:20.203Z,60.80
2022-08-20T09:35:47.173Z,61.90
2022-08-20T09:38:14.526Z,61.80
2022-08-20T09:40:41.550Z,61.50
2022-08-20T09:43:08.866Z,60.10
2022-08-20T09:45:36.433Z,60.20
2022-08-20T09:48:04.043Z,61.00
2022-08-20T09:50:34.900Z,59.50
2022-08-20T09:53:11.697Z,60.60
2022-08-20T09:55:41.436Z,59.80
2022-08-20T09:58:24.132Z,61.20
2022-08-20T10:00:51.685Z,58.80
2022-08-20T10:03:19.025Z,60.30
2022-08-20T10:05:47.316Z,58.10
2022-08-20T10:08:14.729Z,60.00
2022-08-20T10:10:41.841Z,58.20
2022-08-20T10:13:08.851Z,59.60
2022-08-20T10:15:40.444Z,57.30
2022-08-20T10:18:12.167Z,58.80
2022-08-20T10:20:39.865Z,58.60
2022-08-20T10:23:17.065Z,59.20
2022-08-20T10:25:44.197Z,58.50
2022-08-20T10:28:11.244Z,58.10
2022-08-20T10:30:38.550Z,59.30
2022-08-20T10:33:05.491Z,59.10
2022-08-20T10:35:32.656Z,57.80
2022-08-20T10:37:59.546Z,57.20
2022-08-20T10:40:28.248Z,57.40
2022-08-20T10:42:55.271Z,57.10
2022-08-20T10:45:25.783Z,58.40
2022-08-20T10:47:52.991Z,58.50
2022-08-20T10:50:20.189Z,57.40
2022-08-20T10:52:47.501Z,59.60
2022-08-20T10:55:14.528Z,58.30
2022-08-20T10:57:43.724Z,58.80
2022-08-20T11:00:13.549Z,58.30
2022-08-20T11:02:40.598Z,58.50
2022-08-20T11:05:15.131Z,59.20
2022-08-20T11:07:50.849Z,57.10
2022-08-20T11:10:34.041Z,56.90
2022-08-20T11:13:03.358Z,57.60
2022-08-20T11:15:30.383Z,58.40
2022-08-20T11:17:57.438Z,57.10
2022-08-20T11:20:26.428Z,58.10
2022-08-20T11:22:53.973Z,57.70
2022-08-20T11:25:21.367Z,58.70
2022-08-20T11:27:50.441Z,58.90
2022-08-20T11:30:22.049Z,58.80
2022-08-20T11:32:49.068Z,57.70
2022-08-20T11:35:49.561Z,57.60
2022-08-20T11:38:04.811Z,57.50
2022-08-20T11:40:32.201Z,57.50
2022-08-20T11:43:14.059Z,58.30
2022-08-20T11:45:42.972Z,57.00
2022-08-20T11:48:09.942Z,57.80
2022-08-20T11:50:36.948Z,57.70
2022-08-20T11:53:03.929Z,56.80
2022-08-20T11:55:31.197Z,56.90
2022-08-20T11:58:00.519Z,56.80
2022-08-20T12:00:32.918Z,56.90
2022-08-20T12:03:05.156Z,57.30
2022-08-20T12:05:32.787Z,57.20
2022-08-20T12:08:01.348Z,56.30
2022-08-20T12:10:28.615Z,55.40
2022-08-20T12:12:55.694Z,56.10
2022-08-20T12:15:22.783Z,57.30
2022-08-20T12:17:49.742Z,56.50
2022-08-20T12:20:17.990Z,57.70
2022-08-20T12:22:45.190Z,56.00
2022-08-20T12:25:15.696Z,56.20
2022-08-20T12:27:42.883Z,56.20
2022-08-20T12:30:14.237Z,56.60
2022-08-20T12:32:42.448Z,56.60
2022-08-20T12:35:20.015Z,56.20
2022-08-20T12:37:50.035Z,56.80
2022-08-20T12:40:22.741Z,57.10
2022-08-20T12:42:59.742Z,57.50
2022-08-20T12:45:26.728Z,56.90
2022-08-20T12:48:00.187Z,57.00
2022-08-20T12:50:31.274Z,57.60
2022-08-20T12:53:00.480Z,56.90
2022-08-20T12:55:35.423Z,56.90
2022-08-20T12:58:03.748Z,57.50
2022-08-20T13:00:33.011Z,56.50
2022-08-20T13:03:02.100Z,57.00
2022-08-20T13:05:29.797Z,56.30
2022-08-20T13:07:57.485Z,56.20
2022-08-20T13:10:28.215Z,56.20
2022-08-20T13:12:55.297Z,56.50
2022-08-20T13:15:22.877Z,56.30
2022-08-20T13:17:52.365Z,56.70
2022-08-20T13:20:19.766Z,55.40
2022-08-20T13:22:46.667Z,56.20
2022-08-20T13:25:14.504Z,55.30
2022-08-20T13:27:44.820Z,55.70
2022-08-20T13:30:14.646Z,55.60
2022-08-20T13:32:42.170Z,55.50
2022-08-20T13:35:11.631Z,55.30
2022-08-20T13:37:40.321Z,55.40
2022-08-20T13:40:09.150Z,55.00
2022-08-20T13:42:36.421Z,55.40
2022-08-20T13:45:06.150Z,55.70
2022-08-20T13:47:35.888Z,55.80
2022-08-20T13:50:08.224Z,56.70
2022-08-20T13:52:35.459Z,56.70
2022-08-20T13:55:06.517Z,57.00
2022-08-20T13:57:34.516Z,57.10
2022-08-20T14:00:01.630Z,56.80
2022-08-20T14:02:29.827Z,56.90
2022-08-20T14:04:56.756Z,56.00
2022-08-20T14:07:31.475Z,56.10
2022-08-20T14:10:03.320Z,56.30
2022-08-20T14:12:30.823Z,55.90
2022-08-20T14:14:58.184Z,55.80
2022-08-20T14:17:28.079Z,55.00
2022-08-20T14:20:01.157Z,55.50
2022-08-20T14:22:28.958Z,55.70
2022-08-20T14:24:56.660Z,55.80
2022-08-20T14:27:29.088Z,56.20
2022-08-20T14:30:07.892Z,56.00
2022-08-20T14:32:34.887Z,56.40
2022-08-20T14:35:03.389Z,56.00
2022-08-20T14:37:31.676Z,55.40
2022-08-20T14:40:00.101Z,55.80
2022-08-20T14:42:28.574Z,56.20
2022-08-20T14:44:55.862Z,56.70
2022-08-20T14:47:25.460Z,56.00
2022-08-20T14:49:54.808Z,56.80
2022-08-20T14:52:28.142Z,56.90
2022-08-20T14:54:57.825Z,56.30
2022-08-20T14:57:24.825Z,56.30
2022-08-20T14:59:53.134Z,56.20
2022-08-20T15:02:20.127Z,56.40
2022-08-20T15:04:52.320Z,56.20
2022-08-20T15:07:26.107Z,56.50
2022-08-20T15:09:54.506Z,55.90
2022-08-20T15:12:21.582Z,56.70
2022-08-20T15:14:49.061Z,56.90
2022-08-20T15:17:30.216Z,56.80
2022-08-20T15:19:57.723Z,56.90
2022-08-20T15:22:26.280Z,56.70
2022-08-20T15:24:57.566Z,56.50
2022-08-20T15:27:25.787Z,56.50
2022-08-20T15:29:54.163Z,56.60
2022-08-20T15:32:21.521Z,56.50
2022-08-20T15:34:49.802Z,56.70
2022-08-20T15:37:18.596Z,55.90
2022-08-20T15:39:48.472Z,55.90
2022-08-20T15:42:15.951Z,56.60
2022-08-20T15:44:43.592Z,55.50
2022-08-20T15:47:26.419Z,55.60
2022-08-20T15:49:56.409Z,56.00
2022-08-20T15:52:31.348Z,55.60
2022-08-20T15:55:00.447Z,55.70
2022-08-20T15:57:47.591Z,56.60
2022-08-20T16:00:19.681Z,56.40
2022-08-20T16:03:12.676Z,55.90
2022-08-20T16:05:46.689Z,55.70
2022-08-20T16:08:31.505Z,56.10
2022-08-20T16:11:09.442Z,56.30
2022-08-20T16:13:40.316Z,56.30
2022-08-20T16:16:11.782Z,56.40
2022-08-20T16:18:40.591Z,55.80
2022-08-20T16:21:13.449Z,56.10
2022-08-20T16:23:42.510Z,56.20
2022-08-20T16:26:32.304Z,56.30
2022-08-20T16:29:13.702Z,56.10
2022-08-20T16:31:46.475Z,56.20
2022-08-20T16:34:33.427Z,55.90
2022-08-20T16:37:11.636Z,56.00
2022-08-20T16:39:47.638Z,56.10
2022-08-20T16:42:21.019Z,55.90
2022-08-20T16:44:51.150Z,56.00
2022-08-20T16:47:20.817Z,55.90
2022-08-20T16:49:55.762Z,55.70
2022-08-20T16:52:23.221Z,55.70
2022-08-20T16:54:50.314Z,55.70
2022-08-20T16:57:19.792Z,55.70
2022-08-20T17:00:14.887Z,55.60
2022-08-20T17:02:53.488Z,55.40
2022-08-20T17:05:21.328Z,55.70
2022-08-20T17:07:51.188Z,55.40
2022-08-20T17:10:22.508Z,55.30
2022-08-20T17:12:56.391Z,55.90
2022-08-20T17:15:27.255Z,55.70
2022-08-20T17:17:55.934Z,55.80
2022-08-20T17:20:29.269Z,55.90
2022-08-20T17:23:24.548Z,56.10
2022-08-20T17:26:00.141Z,56.20
2022-08-20T17:28:33.261Z,56.50
2022-08-20T17:31:08.508Z,56.60
2022-08-20T17:33:39.734Z,56.80
2022-08-20T17:36:11.466Z,56.80
2022-08-20T17:38:45.394Z,57.10
2022-08-20T17:41:19.702Z,57.30
2022-08-20T17:43:57.091Z,57.20
2022-08-20T17:46:27.956Z,57.30
2022-08-20T17:48:57.589Z,57.50
2022-08-20T17:51:28.382Z,57.70
2022-08-20T17:54:00.281Z,57.90
2022-08-20T17:56:30.537Z,58.00
2022-08-20T17:59:05.886Z,58.10
2022-08-20T18:01:34.105Z,58.10
2022-08-20T18:04:01.184Z,58.30
2022-08-20T18:06:34.492Z,58.40
2022-08-20T18:09:04.905Z,58.50
2022-08-20T18:11:39.412Z,58.70
2022-08-20T18:14:25.959Z,58.80
2022-08-20T18:17:08.836Z,58.90
2022-08-20T18:20:13.812Z,59.00
2022-08-20T18:22:49.992Z,59.10
2022-08-20T18:25:29.557Z,59.20
2022-08-20T18:28:04.576Z,59.40
2022-08-20T18:30:34.147Z,59.60
2022-08-20T18:33:05.267Z,59.60
2022-08-20T18:35:34.989Z,59.80
2022-08-20T18:38:13.648Z,59.80
2022-08-20T18:40:41.642Z,60.00
2022-08-20T18:43:13.026Z,60.10
2022-08-20T18:45:41.923Z,60.20
2022-08-20T18:48:20.931Z,60.40
2022-08-20T18:50:50.658Z,60.50
2022-08-20T18:53:21.007Z,60.70
2022-08-20T18:56:00.900Z,60.80
2022-08-20T18:58:32.085Z,60.90
2022-08-20T19:01:04.786Z,61.00
2022-08-20T19:03:38.404Z,61.20
2022-08-20T19:06:24.458Z,61.30
2022-08-20T19:08:59.191Z,61.50
2022-08-20T19:11:57.825Z,61.60
2022-08-20T19:14:56.857Z,61.80
2022-08-20T19:17:41.784Z,62.00
2022-08-20T19:20:13.792Z,62.10
2022-08-20T19:22:42.523Z,62.10
2022-08-20T19:25:25.724Z,62.30
2022-08-20T19:27:52.944Z,62.70
2022-08-20T19:30:35.067Z,62.70
2022-08-20T19:33:03.968Z,62.80
2022-08-20T19:35:31.316Z,63.00
2022-08-20T19:37:59.470Z,63.20
2022-08-20T19:40:29.981Z,63.20
2022-08-20T19:42:59.196Z,63.30
2022-08-20T19:45:32.363Z,63.30
2022-08-20T19:48:36.049Z,63.40
2022-08-20T19:51:10.527Z,63.60
2022-08-20T19:53:44.693Z,63.80
2022-08-20T19:56:14.321Z,64.00
2022-08-20T19:58:42.081Z,64.10
2022-08-20T20:01:15.160Z,64.40
2022-08-20T20:03:55.657Z,64.50
2022-08-20T20:06:24.780Z,64.70
2022-08-20T20:08:56.312Z,64.70
2022-08-20T20:11:32.843Z,64.90
2022-08-20T20:14:06.660Z,65.00
2022-08-20T20:16:34.886Z,65.20
2022-08-20T20:19:25.389Z,65.40
2022-08-20T20:22:06.165Z,65.60
2022-08-20T20:24:42.813Z,65.70
2022-08-20T20:27:24.556Z,65.70
2022-08-20T20:29:58.860Z,65.80
2022-08-20T20:32:34.060Z,65.80
2022-08-20T20:35:05.904Z,65.90
2022-08-20T20:37:49.746Z,66.00
2022-08-20T20:40:24.280Z,66.00
2022-08-20T20:43:00.520Z,66.20
2022-08-20T20:45:33.483Z,66.20
2022-08-20T20:48:13.530Z,66.30
2022-08-20T20:50:42.443Z,66.40
2022-08-20T20:53:53.244Z,66.50
2022-08-20T20:56:29.437Z,66.50
2022-08-20T20:58:56.392Z,66.70
2022-08-20T21:01:38.582Z,66.70
2022-08-20T21:04:10.265Z,66.70
2022-08-20T21:06:38.999Z,66.90
2022-08-20T21:09:05.896Z,67.10
2022-08-20T21:11:32.869Z,67.20
2022-08-20T21:13:59.709Z,67.30
2022-08-20T21:16:26.725Z,67.50
2022-08-20T21:18:53.792Z,67.40
2022-08-20T21:21:20.769Z,67.50
2022-08-20T21:23:49.150Z,67.50
2022-08-20T21:26:16.148Z,67.60
2022-08-20T21:28:43.024Z,67.70
2022-08-20T21:31:10.114Z,67.90
2022-08-20T21:33:37.051Z,68.00
2022-08-20T21:36:04.417Z,68.20
2022-08-20T21:38:31.348Z,68.30
2022-08-20T21:40:59.709Z,68.40
2022-08-20T21:43:27.220Z,68.50
2022-08-20T21:46:09.719Z,68.50
2022-08-20T21:48:39.743Z,68.50
2022-08-20T21:51:06.924Z,68.60
2022-08-20T21:53:33.820Z,68.70
2022-08-20T21:56:02.438Z,68.80
2022-08-20T21:58:29.486Z,69.00
2022-08-20T22:00:59.913Z,69.00
2022-08-20T22:03:29.622Z,69.10
2022-08-20T22:05:59.066Z,69.10
2022-08-20T22:08:28.148Z,69.30
2022-08-20T22:10:57.187Z,69.20
2022-08-20T22:13:31.246Z,69.40
2022-08-20T22:15:58.056Z,69.50
2022-08-20T22:18:28.129Z,69.60
2022-08-20T22:20:55.706Z,69.60
2022-08-20T22:23:23.554Z,69.70
2022-08-20T22:25:51.169Z,69.70
2022-08-20T22:28:19.168Z,69.90
2022-08-20T22:30:47.508Z,69.80
2022-08-20T22:33:26.186Z,69.90
2022-08-20T22:35:55.866Z,70.00
2022-08-20T22:38:23.595Z,70.00
2022-08-20T22:40:53.948Z,70.10
2022-08-20T22:43:21.948Z,70.20
2022-08-20T22:45:55.519Z,70.10
2022-08-20T22:48:22.420Z,70.20
2022-08-20T22:50:50.305Z,70.20
2022-08-20T22:53:18.655Z,70.30
2022-08-20T22:55:45.922Z,70.40
2022-08-20T22:58:12.992Z,70.40
2022-08-20T23:00:40.029Z,70.40
2022-08-20T23:03:09.626Z,70.40
2022-08-20T23:05:37.758Z,70.50
2022-08-20T23:08:05.713Z,70.60
2022-08-20T23:10:33.671Z,70.70
2022-08-20T23:13:00.675Z,70.90
2022-08-20T23:15:28.788Z,70.80
2022-08-20T23:18:00.440Z,70.90
2022-08-20T23:20:29.040Z,70.80
2022-08-20T23:22:56.256Z,70.90
2022-08-20T23:25:23.699Z,70.90
2022-08-20T23:27:55.904Z,71.00
2022-08-20T23:30:31.120Z,71.00
2022-08-20T23:32:58.376Z,71.20
2022-08-20T23:35:32.909Z,71.20
2022-08-20T23:38:00.396Z,71.30
2022-08-20T23:40:28.829Z,71.40
2022-08-20T23:42:56.489Z,71.30
2022-08-20T23:45:24.104Z,71.30
2022-08-20T23:47:50.945Z,71.30
2022-08-20T23:50:20.013Z,71.50
2022-08-20T23:52:48.392Z,71.50
2022-08-20T23:55:15.395Z,71.70
2022-08-20T23:57:42.228Z,71.70
